sensor_id;sensor_type;location;lat;lon;timestamp;P1;durP1;ratioP1;P2;durP2;ratioP2
47431;SDS011;33183;52.290;6.144;2024-03-08T00:00:51;7.22;;;5.55;;
47431;SDS011;33183;52.290;6.144;2024-03-08T00:03:16;7.68;;;5.50;;
47431;SDS011;33183;52.290;6.144;2024-03-08T00:05:42;7.43;;;5.35;;
47431;SDS011;33183;52.290;6.144;2024-03-08T00:08:07;7.35;;;5.57;;
47431;SDS011;33183;52.290;6.144;2024-03-08T00:10:34;7.18;;;5.65;;
47431;SDS011;33183;52.290;6.144;2024-03-08T00:13:00;7.57;;;5.75;;
47431;SDS011;33183;52.290;6.144;2024-03-08T00:15:25;7.05;;;5.43;;
47431;SDS011;33183;52.290;6.144;2024-03-08T00:17:51;6.78;;;5.35;;
47431;SDS011;33183;52.290;6.144;2024-03-08T00:20:16;7.53;;;6.13;;
47431;SDS011;33183;52.290;6.144;2024-03-08T00:22:42;6.85;;;5.53;;
47431;SDS011;33183;52.290;6.144;2024-03-08T00:25:08;8.27;;;6.25;;
47431;SDS011;33183;52.290;6.144;2024-03-08T00:27:34;6.80;;;5.65;;
47431;SDS011;33183;52.290;6.144;2024-03-08T00:29:59;6.63;;;5.93;;
47431;SDS011;33183;52.290;6.144;2024-03-08T00:32:25;5.85;;;5.20;;
47431;SDS011;33183;52.290;6.144;2024-03-08T00:34:50;7.10;;;5.53;;
47431;SDS011;33183;52.290;6.144;2024-03-08T00:37:19;7.30;;;5.78;;
47431;SDS011;33183;52.290;6.144;2024-03-08T00:39:45;6.95;;;5.47;;
47431;SDS011;33183;52.290;6.144;2024-03-08T00:42:10;7.50;;;5.70;;
47431;SDS011;33183;52.290;6.144;2024-03-08T00:44:35;8.90;;;5.97;;
47431;SDS011;33183;52.290;6.144;2024-03-08T00:47:00;6.38;;;5.60;;
47431;SDS011;33183;52.290;6.144;2024-03-08T00:49:27;7.38;;;5.78;;
47431;SDS011;33183;52.290;6.144;2024-03-08T00:51:52;7.55;;;5.85;;
47431;SDS011;33183;52.290;6.144;2024-03-08T00:54:17;7.63;;;5.57;;
47431;SDS011;33183;52.290;6.144;2024-03-08T00:56:42;6.63;;;5.20;;
47431;SDS011;33183;52.290;6.144;2024-03-08T00:59:08;6.85;;;5.93;;
47431;SDS011;33183;52.290;6.144;2024-03-08T01:01:33;6.75;;;5.25;;
47431;SDS011;33183;52.290;6.144;2024-03-08T01:03:58;5.97;;;5.28;;
47431;SDS011;33183;52.290;6.144;2024-03-08T01:06:23;7.43;;;5.53;;
47431;SDS011;33183;52.290;6.144;2024-03-08T01:08:49;6.72;;;5.85;;
47431;SDS011;33183;52.290;6.144;2024-03-08T01:11:16;7.75;;;6.15;;
47431;SDS011;33183;52.290;6.144;2024-03-08T01:13:42;7.72;;;6.20;;
47431;SDS011;33183;52.290;6.144;2024-03-08T01:16:08;6.93;;;5.40;;
47431;SDS011;33183;52.290;6.144;2024-03-08T01:18:33;7.35;;;5.57;;
47431;SDS011;33183;52.290;6.144;2024-03-08T01:20:58;7.53;;;5.85;;
47431;SDS011;33183;52.290;6.144;2024-03-08T01:23:24;6.55;;;5.28;;
47431;SDS011;33183;52.290;6.144;2024-03-08T01:25:49;6.50;;;5.75;;
47431;SDS011;33183;52.290;6.144;2024-03-08T01:28:21;7.15;;;5.63;;
47431;SDS011;33183;52.290;6.144;2024-03-08T01:30:47;7.13;;;5.95;;
47431;SDS011;33183;52.290;6.144;2024-03-08T01:33:12;8.05;;;6.35;;
47431;SDS011;33183;52.290;6.144;2024-03-08T01:35:37;6.75;;;5.20;;
47431;SDS011;33183;52.290;6.144;2024-03-08T01:38:06;6.78;;;5.72;;
47431;SDS011;33183;52.290;6.144;2024-03-08T01:40:31;7.80;;;5.78;;
47431;SDS011;33183;52.290;6.144;2024-03-08T01:42:56;7.75;;;6.07;;
47431;SDS011;33183;52.290;6.144;2024-03-08T01:45:22;5.80;;;4.97;;
47431;SDS011;33183;52.290;6.144;2024-03-08T01:47:47;7.32;;;5.55;;
47431;SDS011;33183;52.290;6.144;2024-03-08T01:50:13;6.25;;;5.65;;
47431;SDS011;33183;52.290;6.144;2024-03-08T01:52:39;7.75;;;6.18;;
47431;SDS011;33183;52.290;6.144;2024-03-08T01:55:04;6.72;;;5.57;;
47431;SDS011;33183;52.290;6.144;2024-03-08T01:57:32;8.70;;;6.03;;
47431;SDS011;33183;52.290;6.144;2024-03-08T01:59:58;6.38;;;5.18;;
47431;SDS011;33183;52.290;6.144;2024-03-08T02:02:28;6.88;;;6.18;;
47431;SDS011;33183;52.290;6.144;2024-03-08T02:04:56;6.78;;;5.72;;
47431;SDS011;33183;52.290;6.144;2024-03-08T02:07:21;7.20;;;5.55;;
47431;SDS011;33183;52.290;6.144;2024-03-08T02:09:47;6.47;;;5.57;;
47431;SDS011;33183;52.290;6.144;2024-03-08T02:12:12;8.40;;;6.13;;
47431;SDS011;33183;52.290;6.144;2024-03-08T02:14:37;7.15;;;6.18;;
47431;SDS011;33183;52.290;6.144;2024-03-08T02:17:02;6.07;;;5.47;;
47431;SDS011;33183;52.290;6.144;2024-03-08T02:19:28;7.95;;;6.15;;
47431;SDS011;33183;52.290;6.144;2024-03-08T02:21:53;6.90;;;5.78;;
47431;SDS011;33183;52.290;6.144;2024-03-08T02:24:18;6.72;;;5.10;;
47431;SDS011;33183;52.290;6.144;2024-03-08T02:26:44;6.53;;;5.80;;
47431;SDS011;33183;52.290;6.144;2024-03-08T02:29:09;8.35;;;6.22;;
47431;SDS011;33183;52.290;6.144;2024-03-08T02:31:34;6.18;;;5.57;;
47431;SDS011;33183;52.290;6.144;2024-03-08T02:33:59;6.80;;;5.75;;
47431;SDS011;33183;52.290;6.144;2024-03-08T02:36:25;7.35;;;5.82;;
47431;SDS011;33183;52.290;6.144;2024-03-08T02:38:50;6.63;;;5.47;;
47431;SDS011;33183;52.290;6.144;2024-03-08T02:41:15;7.07;;;5.95;;
47431;SDS011;33183;52.290;6.144;2024-03-08T02:43:40;6.63;;;5.65;;
47431;SDS011;33183;52.290;6.144;2024-03-08T02:46:06;7.18;;;6.03;;
47431;SDS011;33183;52.290;6.144;2024-03-08T02:48:31;6.70;;;6.00;;
47431;SDS011;33183;52.290;6.144;2024-03-08T02:50:56;7.45;;;5.88;;
47431;SDS011;33183;52.290;6.144;2024-03-08T02:53:22;7.45;;;5.68;;
47431;SDS011;33183;52.290;6.144;2024-03-08T02:55:47;6.78;;;5.82;;
47431;SDS011;33183;52.290;6.144;2024-03-08T02:58:12;7.13;;;5.75;;
47431;SDS011;33183;52.290;6.144;2024-03-08T03:00:39;6.25;;;5.55;;
47431;SDS011;33183;52.290;6.144;2024-03-08T03:03:05;6.68;;;5.97;;
47431;SDS011;33183;52.290;6.144;2024-03-08T03:05:31;8.75;;;6.70;;
47431;SDS011;33183;52.290;6.144;2024-03-08T03:07:57;6.45;;;5.60;;
47431;SDS011;33183;52.290;6.144;2024-03-08T03:10:23;6.93;;;5.80;;
47431;SDS011;33183;52.290;6.144;2024-03-08T03:12:48;7.72;;;5.55;;
47431;SDS011;33183;52.290;6.144;2024-03-08T03:15:14;6.55;;;5.72;;
47431;SDS011;33183;52.290;6.144;2024-03-08T03:17:45;7.15;;;5.72;;
47431;SDS011;33183;52.290;6.144;2024-03-08T03:20:11;7.70;;;5.95;;
47431;SDS011;33183;52.290;6.144;2024-03-08T03:22:39;7.60;;;5.93;;
47431;SDS011;33183;52.290;6.144;2024-03-08T03:25:12;6.18;;;5.50;;
47431;SDS011;33183;52.290;6.144;2024-03-08T03:27:37;6.47;;;5.85;;
47431;SDS011;33183;52.290;6.144;2024-03-08T03:30:04;7.45;;;5.70;;
47431;SDS011;33183;52.290;6.144;2024-03-08T03:32:46;9.23;;;6.95;;
47431;SDS011;33183;52.290;6.144;2024-03-08T03:35:16;6.38;;;5.70;;
47431;SDS011;33183;52.290;6.144;2024-03-08T03:37:42;6.53;;;5.82;;
47431;SDS011;33183;52.290;6.144;2024-03-08T03:40:10;6.22;;;5.63;;
47431;SDS011;33183;52.290;6.144;2024-03-08T03:42:36;6.25;;;5.50;;
47431;SDS011;33183;52.290;6.144;2024-03-08T03:45:03;7.32;;;5.75;;
47431;SDS011;33183;52.290;6.144;2024-03-08T03:47:30;7.15;;;5.85;;
47431;SDS011;33183;52.290;6.144;2024-03-08T03:49:55;7.18;;;6.28;;
47431;SDS011;33183;52.290;6.144;2024-03-08T03:52:21;8.55;;;6.13;;
47431;SDS011;33183;52.290;6.144;2024-03-08T03:54:46;7.35;;;5.90;;
47431;SDS011;33183;52.290;6.144;2024-03-08T03:57:12;7.47;;;6.10;;
47431;SDS011;33183;52.290;6.144;2024-03-08T03:59:37;6.85;;;5.40;;
47431;SDS011;33183;52.290;6.144;2024-03-08T04:02:02;7.22;;;5.65;;
47431;SDS011;33183;52.290;6.144;2024-03-08T04:04:29;7.60;;;6.05;;
47431;SDS011;33183;52.290;6.144;2024-03-08T04:06:54;7.43;;;6.03;;
47431;SDS011;33183;52.290;6.144;2024-03-08T04:09:19;7.72;;;6.05;;
47431;SDS011;33183;52.290;6.144;2024-03-08T04:11:45;6.75;;;5.57;;
47431;SDS011;33183;52.290;6.144;2024-03-08T04:14:10;7.30;;;6.22;;
47431;SDS011;33183;52.290;6.144;2024-03-08T04:16:35;6.68;;;5.75;;
47431;SDS011;33183;52.290;6.144;2024-03-08T04:19:01;7.00;;;6.30;;
47431;SDS011;33183;52.290;6.144;2024-03-08T04:21:29;6.00;;;5.40;;
47431;SDS011;33183;52.290;6.144;2024-03-08T04:23:55;7.15;;;5.25;;
47431;SDS011;33183;52.290;6.144;2024-03-08T04:26:20;6.57;;;5.90;;
47431;SDS011;33183;52.290;6.144;2024-03-08T04:28:45;6.45;;;5.72;;
47431;SDS011;33183;52.290;6.144;2024-03-08T04:31:11;6.28;;;5.07;;
47431;SDS011;33183;52.290;6.144;2024-03-08T04:33:36;7.63;;;6.00;;
47431;SDS011;33183;52.290;6.144;2024-03-08T04:36:02;6.20;;;5.60;;
47431;SDS011;33183;52.290;6.144;2024-03-08T04:38:30;5.90;;;5.28;;
47431;SDS011;33183;52.290;6.144;2024-03-08T04:40:56;6.82;;;6.13;;
47431;SDS011;33183;52.290;6.144;2024-03-08T04:43:22;7.68;;;6.15;;
47431;SDS011;33183;52.290;6.144;2024-03-08T04:45:50;6.75;;;5.88;;
47431;SDS011;33183;52.290;6.144;2024-03-08T04:48:16;6.82;;;5.95;;
47431;SDS011;33183;52.290;6.144;2024-03-08T04:50:41;7.78;;;6.55;;
47431;SDS011;33183;52.290;6.144;2024-03-08T04:53:06;6.88;;;6.18;;
47431;SDS011;33183;52.290;6.144;2024-03-08T04:55:33;6.93;;;5.97;;
47431;SDS011;33183;52.290;6.144;2024-03-08T04:57:59;6.97;;;5.70;;
47431;SDS011;33183;52.290;6.144;2024-03-08T05:00:24;6.72;;;5.43;;
47431;SDS011;33183;52.290;6.144;2024-03-08T05:02:50;6.57;;;5.85;;
47431;SDS011;33183;52.290;6.144;2024-03-08T05:05:18;8.10;;;6.28;;
47431;SDS011;33183;52.290;6.144;2024-03-08T05:07:43;7.85;;;6.38;;
47431;SDS011;33183;52.290;6.144;2024-03-08T05:10:10;8.27;;;5.95;;
47431;SDS011;33183;52.290;6.144;2024-03-08T05:12:36;9.27;;;6.75;;
47431;SDS011;33183;52.290;6.144;2024-03-08T05:15:02;7.55;;;6.07;;
47431;SDS011;33183;52.290;6.144;2024-03-08T05:17:30;7.82;;;5.82;;
47431;SDS011;33183;52.290;6.144;2024-03-08T05:19:55;6.85;;;5.70;;
47431;SDS011;33183;52.290;6.144;2024-03-08T05:22:20;9.10;;;6.07;;
47431;SDS011;33183;52.290;6.144;2024-03-08T05:24:45;8.00;;;6.00;;
47431;SDS011;33183;52.290;6.144;2024-03-08T05:27:11;6.88;;;6.18;;
47431;SDS011;33183;52.290;6.144;2024-03-08T05:29:36;7.60;;;5.78;;
47431;SDS011;33183;52.290;6.144;2024-03-08T05:32:02;7.63;;;6.45;;
47431;SDS011;33183;52.290;6.144;2024-03-08T05:34:28;7.90;;;6.30;;
47431;SDS011;33183;52.290;6.144;2024-03-08T05:36:54;8.63;;;5.68;;
47431;SDS011;33183;52.290;6.144;2024-03-08T05:39:19;7.20;;;6.40;;
47431;SDS011;33183;52.290;6.144;2024-03-08T05:41:45;7.18;;;6.13;;
47431;SDS011;33183;52.290;6.144;2024-03-08T05:44:11;7.70;;;5.85;;
47431;SDS011;33183;52.290;6.144;2024-03-08T05:46:36;7.00;;;5.35;;
47431;SDS011;33183;52.290;6.144;2024-03-08T05:49:02;8.48;;;6.20;;
47431;SDS011;33183;52.290;6.144;2024-03-08T05:51:30;6.87;;;6.17;;
47431;SDS011;33183;52.290;6.144;2024-03-08T05:53:56;8.98;;;5.45;;
47431;SDS011;33183;52.290;6.144;2024-03-08T05:56:22;6.97;;;6.10;;
47431;SDS011;33183;52.290;6.144;2024-03-08T05:58:49;14.35;;;6.45;;
47431;SDS011;33183;52.290;6.144;2024-03-08T06:01:15;14.38;;;6.75;;
47431;SDS011;33183;52.290;6.144;2024-03-08T06:03:40;9.93;;;5.78;;
47431;SDS011;33183;52.290;6.144;2024-03-08T06:06:10;8.07;;;6.22;;
47431;SDS011;33183;52.290;6.144;2024-03-08T06:08:37;7.20;;;5.57;;
47431;SDS011;33183;52.290;6.144;2024-03-08T06:11:02;10.50;;;6.68;;
47431;SDS011;33183;52.290;6.144;2024-03-08T06:13:27;8.82;;;6.25;;
47431;SDS011;33183;52.290;6.144;2024-03-08T06:15:56;9.15;;;6.38;;
47431;SDS011;33183;52.290;6.144;2024-03-08T06:18:21;7.85;;;5.68;;
47431;SDS011;33183;52.290;6.144;2024-03-08T06:20:46;8.50;;;6.20;;
47431;SDS011;33183;52.290;6.144;2024-03-08T06:23:11;6.72;;;5.85;;
47431;SDS011;33183;52.290;6.144;2024-03-08T06:25:37;8.88;;;6.15;;
47431;SDS011;33183;52.290;6.144;2024-03-08T06:28:02;11.10;;;5.88;;
47431;SDS011;33183;52.290;6.144;2024-03-08T06:30:28;8.27;;;5.93;;
47431;SDS011;33183;52.290;6.144;2024-03-08T06:32:53;9.27;;;6.15;;
47431;SDS011;33183;52.290;6.144;2024-03-08T06:35:18;7.70;;;5.40;;
47431;SDS011;33183;52.290;6.144;2024-03-08T06:37:45;7.30;;;6.57;;
47431;SDS011;33183;52.290;6.144;2024-03-08T06:40:10;7.95;;;6.15;;
47431;SDS011;33183;52.290;6.144;2024-03-08T06:42:38;8.07;;;6.82;;
47431;SDS011;33183;52.290;6.144;2024-03-08T06:45:04;6.97;;;6.22;;
47431;SDS011;33183;52.290;6.144;2024-03-08T06:47:30;8.23;;;6.30;;
47431;SDS011;33183;52.290;6.144;2024-03-08T06:49:56;7.15;;;6.45;;
47431;SDS011;33183;52.290;6.144;2024-03-08T06:52:22;7.07;;;6.38;;
47431;SDS011;33183;52.290;6.144;2024-03-08T06:54:47;7.85;;;6.10;;
47431;SDS011;33183;52.290;6.144;2024-03-08T06:57:13;7.65;;;6.57;;
47431;SDS011;33183;52.290;6.144;2024-03-08T06:59:39;7.32;;;5.97;;
47431;SDS011;33183;52.290;6.144;2024-03-08T07:02:04;7.65;;;5.80;;
47431;SDS011;33183;52.290;6.144;2024-03-08T07:04:29;7.00;;;6.18;;
47431;SDS011;33183;52.290;6.144;2024-03-08T07:06:58;8.15;;;6.65;;
47431;SDS011;33183;52.290;6.144;2024-03-08T07:09:26;6.93;;;5.93;;
47431;SDS011;33183;52.290;6.144;2024-03-08T07:11:51;8.33;;;6.70;;
47431;SDS011;33183;52.290;6.144;2024-03-08T07:14:20;6.80;;;5.90;;
47431;SDS011;33183;52.290;6.144;2024-03-08T07:16:47;8.95;;;5.93;;
47431;SDS011;33183;52.290;6.144;2024-03-08T07:19:12;7.90;;;6.03;;
47431;SDS011;33183;52.290;6.144;2024-03-08T07:21:37;6.57;;;5.90;;
47431;SDS011;33183;52.290;6.144;2024-03-08T07:24:02;7.15;;;6.18;;
47431;SDS011;33183;52.290;6.144;2024-03-08T07:26:38;8.52;;;6.35;;
47431;SDS011;33183;52.290;6.144;2024-03-08T07:29:03;8.90;;;6.30;;
47431;SDS011;33183;52.290;6.144;2024-03-08T07:31:28;7.40;;;6.15;;
47431;SDS011;33183;52.290;6.144;2024-03-08T07:34:09;7.32;;;5.80;;
47431;SDS011;33183;52.290;6.144;2024-03-08T07:36:34;7.57;;;5.63;;
47431;SDS011;33183;52.290;6.144;2024-03-08T07:39:00;6.30;;;5.55;;
47431;SDS011;33183;52.290;6.144;2024-03-08T07:41:25;7.63;;;6.05;;
47431;SDS011;33183;52.290;6.144;2024-03-08T07:43:51;7.05;;;5.95;;
47431;SDS011;33183;52.290;6.144;2024-03-08T07:46:17;6.85;;;5.63;;
47431;SDS011;33183;52.290;6.144;2024-03-08T07:48:44;7.38;;;6.13;;
47431;SDS011;33183;52.290;6.144;2024-03-08T07:51:09;6.60;;;5.78;;
47431;SDS011;33183;52.290;6.144;2024-03-08T07:53:37;6.72;;;5.90;;
47431;SDS011;33183;52.290;6.144;2024-03-08T07:56:03;7.15;;;5.65;;
47431;SDS011;33183;52.290;6.144;2024-03-08T07:58:29;7.47;;;6.68;;
47431;SDS011;33183;52.290;6.144;2024-03-08T08:00:55;6.40;;;5.80;;
47431;SDS011;33183;52.290;6.144;2024-03-08T08:03:20;7.38;;;5.53;;
47431;SDS011;33183;52.290;6.144;2024-03-08T08:05:45;6.40;;;5.70;;
47431;SDS011;33183;52.290;6.144;2024-03-08T08:08:11;6.13;;;5.55;;
47431;SDS011;33183;52.290;6.144;2024-03-08T08:10:37;6.88;;;6.18;;
47431;SDS011;33183;52.290;6.144;2024-03-08T08:13:03;11.02;;;6.30;;
47431;SDS011;33183;52.290;6.144;2024-03-08T08:15:31;6.85;;;5.57;;
47431;SDS011;33183;52.290;6.144;2024-03-08T08:17:56;6.88;;;6.10;;
47431;SDS011;33183;52.290;6.144;2024-03-08T08:20:21;6.40;;;5.38;;
47431;SDS011;33183;52.290;6.144;2024-03-08T08:22:48;6.63;;;5.97;;
47431;SDS011;33183;52.290;6.144;2024-03-08T08:25:13;7.90;;;5.63;;
47431;SDS011;33183;52.290;6.144;2024-03-08T08:27:40;7.70;;;6.55;;
47431;SDS011;33183;52.290;6.144;2024-03-08T08:30:07;7.25;;;5.60;;
47431;SDS011;33183;52.290;6.144;2024-03-08T08:32:34;6.75;;;5.30;;
47431;SDS011;33183;52.290;6.144;2024-03-08T08:35:01;6.95;;;5.90;;
47431;SDS011;33183;52.290;6.144;2024-03-08T08:37:27;6.97;;;5.55;;
47431;SDS011;33183;52.290;6.144;2024-03-08T08:39:53;7.35;;;5.95;;
47431;SDS011;33183;52.290;6.144;2024-03-08T08:42:19;6.82;;;6.05;;
47431;SDS011;33183;52.290;6.144;2024-03-08T08:44:44;6.55;;;5.60;;
47431;SDS011;33183;52.290;6.144;2024-03-08T08:47:09;7.65;;;5.68;;
47431;SDS011;33183;52.290;6.144;2024-03-08T08:49:35;7.43;;;5.95;;
47431;SDS011;33183;52.290;6.144;2024-03-08T08:52:00;7.05;;;5.68;;
47431;SDS011;33183;52.290;6.144;2024-03-08T08:54:26;6.65;;;5.88;;
47431;SDS011;33183;52.290;6.144;2024-03-08T08:56:52;7.10;;;5.75;;
47431;SDS011;33183;52.290;6.144;2024-03-08T08:59:18;6.85;;;5.40;;
47431;SDS011;33183;52.290;6.144;2024-03-08T09:01:48;5.32;;;4.80;;
47431;SDS011;33183;52.290;6.144;2024-03-08T09:04:13;7.13;;;5.45;;
47431;SDS011;33183;52.290;6.144;2024-03-08T09:06:38;7.32;;;6.07;;
47431;SDS011;33183;52.290;6.144;2024-03-08T09:09:06;7.20;;;5.97;;
47431;SDS011;33183;52.290;6.144;2024-03-08T09:11:34;7.13;;;5.38;;
47431;SDS011;33183;52.290;6.144;2024-03-08T09:13:59;7.45;;;6.07;;
47431;SDS011;33183;52.290;6.144;2024-03-08T09:16:24;6.30;;;5.38;;
47431;SDS011;33183;52.290;6.144;2024-03-08T09:18:50;5.82;;;5.18;;
47431;SDS011;33183;52.290;6.144;2024-03-08T09:21:15;6.53;;;5.10;;
47431;SDS011;33183;52.290;6.144;2024-03-08T09:23:41;8.23;;;5.43;;
47431;SDS011;33183;52.290;6.144;2024-03-08T09:26:09;7.97;;;6.17;;
47431;SDS011;33183;52.290;6.144;2024-03-08T09:28:35;7.03;;;5.88;;
47431;SDS011;33183;52.290;6.144;2024-03-08T09:31:01;6.68;;;5.50;;
47431;SDS011;33183;52.290;6.144;2024-03-08T09:33:26;6.40;;;5.70;;
47431;SDS011;33183;52.290;6.144;2024-03-08T09:35:53;6.25;;;5.50;;
47431;SDS011;33183;52.290;6.144;2024-03-08T09:38:19;6.22;;;5.63;;
47431;SDS011;33183;52.290;6.144;2024-03-08T09:40:45;5.90;;;5.25;;
47431;SDS011;33183;52.290;6.144;2024-03-08T09:43:11;6.32;;;5.28;;
47431;SDS011;33183;52.290;6.144;2024-03-08T09:45:39;6.32;;;5.45;;
47431;SDS011;33183;52.290;6.144;2024-03-08T09:48:07;6.40;;;5.10;;
47431;SDS011;33183;52.290;6.144;2024-03-08T09:50:37;6.35;;;5.38;;
47431;SDS011;33183;52.290;6.144;2024-03-08T09:53:02;6.97;;;5.50;;
47431;SDS011;33183;52.290;6.144;2024-03-08T09:55:28;6.35;;;5.43;;
47431;SDS011;33183;52.290;6.144;2024-03-08T09:57:59;6.68;;;5.70;;
47431;SDS011;33183;52.290;6.144;2024-03-08T10:03:23;6.10;;;5.50;;
47431;SDS011;33183;52.290;6.144;2024-03-08T10:05:48;5.93;;;5.32;;
47431;SDS011;33183;52.290;6.144;2024-03-08T10:08:14;5.63;;;5.03;;
47431;SDS011;33183;52.290;6.144;2024-03-08T10:10:39;5.75;;;5.15;;
47431;SDS011;33183;52.290;6.144;2024-03-08T10:13:07;6.28;;;5.68;;
47431;SDS011;33183;52.290;6.144;2024-03-08T10:15:33;6.45;;;5.18;;
47431;SDS011;33183;52.290;6.144;2024-03-08T10:17:58;5.75;;;5.25;;
47431;SDS011;33183;52.290;6.144;2024-03-08T10:20:24;6.00;;;5.40;;
47431;SDS011;33183;52.290;6.144;2024-03-08T10:22:49;5.90;;;5.30;;
47431;SDS011;33183;52.290;6.144;2024-03-08T10:25:15;7.80;;;5.22;;
47431;SDS011;33183;52.290;6.144;2024-03-08T10:27:40;6.07;;;5.25;;
47431;SDS011;33183;52.290;6.144;2024-03-08T10:30:06;5.97;;;5.38;;
47431;SDS011;33183;52.290;6.144;2024-03-08T10:32:35;6.57;;;5.35;;
47431;SDS011;33183;52.290;6.144;2024-03-08T10:35:00;6.18;;;5.50;;
47431;SDS011;33183;52.290;6.144;2024-03-08T10:37:26;6.18;;;5.53;;
47431;SDS011;33183;52.290;6.144;2024-03-08T10:39:58;5.82;;;5.22;;
47431;SDS011;33183;52.290;6.144;2024-03-08T10:42:35;5.60;;;4.95;;
47431;SDS011;33183;52.290;6.144;2024-03-08T10:45:09;5.63;;;5.05;;
47431;SDS011;33183;52.290;6.144;2024-03-08T10:47:41;5.70;;;5.07;;
47431;SDS011;33183;52.290;6.144;2024-03-08T10:50:19;5.68;;;4.97;;
47431;SDS011;33183;52.290;6.144;2024-03-08T10:52:51;4.90;;;4.40;;
47431;SDS011;33183;52.290;6.144;2024-03-08T10:57:48;6.78;;;5.68;;
47431;SDS011;33183;52.290;6.144;2024-03-08T11:00:13;6.70;;;5.90;;
47431;SDS011;33183;52.290;6.144;2024-03-08T11:02:42;7.70;;;6.20;;
47431;SDS011;33183;52.290;6.144;2024-03-08T11:05:31;5.88;;;5.28;;
47431;SDS011;33183;52.290;6.144;2024-03-08T11:08:05;5.00;;;4.50;;
47431;SDS011;33183;52.290;6.144;2024-03-08T11:10:52;5.38;;;4.43;;
47431;SDS011;33183;52.290;6.144;2024-03-08T11:13:32;5.82;;;5.22;;
47431;SDS011;33183;52.290;6.144;2024-03-08T11:16:11;5.25;;;4.75;;
47431;SDS011;33183;52.290;6.144;2024-03-08T11:19:01;6.28;;;5.68;;
47431;SDS011;33183;52.290;6.144;2024-03-08T11:21:30;5.93;;;5.05;;
47431;SDS011;33183;52.290;6.144;2024-03-08T11:24:02;6.70;;;5.05;;
47431;SDS011;33183;52.290;6.144;2024-03-08T11:26:32;5.55;;;5.00;;
47431;SDS011;33183;52.290;6.144;2024-03-08T11:32:06;6.22;;;5.22;;
47431;SDS011;33183;52.290;6.144;2024-03-08T11:34:32;6.43;;;5.00;;
47431;SDS011;33183;52.290;6.144;2024-03-08T11:37:00;7.33;;;4.87;;
47431;SDS011;33183;52.290;6.144;2024-03-08T11:39:25;5.28;;;4.78;;
47431;SDS011;33183;52.290;6.144;2024-03-08T11:41:51;6.45;;;5.32;;
47431;SDS011;33183;52.290;6.144;2024-03-08T11:44:16;5.80;;;4.80;;
47431;SDS011;33183;52.290;6.144;2024-03-08T11:46:42;5.93;;;5.00;;
47431;SDS011;33183;52.290;6.144;2024-03-08T11:49:12;7.65;;;5.65;;
47431;SDS011;33183;52.290;6.144;2024-03-08T11:51:38;6.45;;;5.68;;
47431;SDS011;33183;52.290;6.144;2024-03-08T11:54:04;7.35;;;5.53;;
47431;SDS011;33183;52.290;6.144;2024-03-08T11:56:31;6.10;;;5.38;;
47431;SDS011;33183;52.290;6.144;2024-03-08T11:58:57;7.68;;;6.25;;
47431;SDS011;33183;52.290;6.144;2024-03-08T12:01:22;8.82;;;4.95;;
47431;SDS011;33183;52.290;6.144;2024-03-08T12:03:57;6.47;;;4.95;;
47431;SDS011;33183;52.290;6.144;2024-03-08T12:06:25;7.80;;;5.90;;
47431;SDS011;33183;52.290;6.144;2024-03-08T12:08:50;5.80;;;4.78;;
47431;SDS011;33183;52.290;6.144;2024-03-08T12:11:22;7.10;;;5.50;;
47431;SDS011;33183;52.290;6.144;2024-03-08T12:13:48;6.70;;;4.70;;
47431;SDS011;33183;52.290;6.144;2024-03-08T12:16:15;6.50;;;5.35;;
47431;SDS011;33183;52.290;6.144;2024-03-08T12:18:43;7.47;;;5.85;;
47431;SDS011;33183;52.290;6.144;2024-03-08T12:21:09;7.05;;;5.47;;
47431;SDS011;33183;52.290;6.144;2024-03-08T12:23:36;8.75;;;5.80;;
47431;SDS011;33183;52.290;6.144;2024-03-08T12:26:13;8.23;;;5.47;;
47431;SDS011;33183;52.290;6.144;2024-03-08T12:28:39;7.55;;;5.88;;
47431;SDS011;33183;52.290;6.144;2024-03-08T12:31:06;7.45;;;5.00;;
47431;SDS011;33183;52.290;6.144;2024-03-08T12:33:35;6.03;;;5.03;;
47431;SDS011;33183;52.290;6.144;2024-03-08T12:36:14;5.68;;;5.07;;
47431;SDS011;33183;52.290;6.144;2024-03-08T12:38:40;5.95;;;5.05;;
47431;SDS011;33183;52.290;6.144;2024-03-08T12:41:08;6.28;;;4.95;;
47431;SDS011;33183;52.290;6.144;2024-03-08T12:43:34;6.60;;;4.82;;
47431;SDS011;33183;52.290;6.144;2024-03-08T12:45:59;6.68;;;5.15;;
47431;SDS011;33183;52.290;6.144;2024-03-08T12:48:24;9.55;;;5.68;;
47431;SDS011;33183;52.290;6.144;2024-03-08T12:50:49;6.05;;;5.32;;
47431;SDS011;33183;52.290;6.144;2024-03-08T12:53:16;6.30;;;5.00;;
47431;SDS011;33183;52.290;6.144;2024-03-08T12:55:42;7.25;;;5.28;;
47431;SDS011;33183;52.290;6.144;2024-03-08T12:58:07;6.20;;;5.43;;
47431;SDS011;33183;52.290;6.144;2024-03-08T13:00:33;5.28;;;4.78;;
47431;SDS011;33183;52.290;6.144;2024-03-08T13:03:01;6.55;;;5.03;;
47431;SDS011;33183;52.290;6.144;2024-03-08T13:05:27;7.15;;;4.97;;
47431;SDS011;33183;52.290;6.144;2024-03-08T13:07:52;5.72;;;4.53;;
47431;SDS011;33183;52.290;6.144;2024-03-08T13:10:19;6.22;;;4.82;;
47431;SDS011;33183;52.290;6.144;2024-03-08T13:12:45;5.35;;;4.50;;
47431;SDS011;33183;52.290;6.144;2024-03-08T13:15:11;5.97;;;4.68;;
47431;SDS011;33183;52.290;6.144;2024-03-08T13:17:40;7.15;;;4.97;;
47431;SDS011;33183;52.290;6.144;2024-03-08T13:20:07;5.22;;;4.50;;
47431;SDS011;33183;52.290;6.144;2024-03-08T13:22:33;7.70;;;5.07;;
47431;SDS011;33183;52.290;6.144;2024-03-08T13:24:58;5.22;;;4.72;;
47431;SDS011;33183;52.290;6.144;2024-03-08T13:27:26;5.68;;;5.07;;
47431;SDS011;33183;52.290;6.144;2024-03-08T13:29:54;6.07;;;4.50;;
47431;SDS011;33183;52.290;6.144;2024-03-08T13:32:19;5.15;;;4.57;;
47431;SDS011;33183;52.290;6.144;2024-03-08T13:34:49;6.28;;;5.13;;
47431;SDS011;33183;52.290;6.144;2024-03-08T13:37:16;5.05;;;4.25;;
47431;SDS011;33183;52.290;6.144;2024-03-08T13:39:41;6.95;;;5.35;;
47431;SDS011;33183;52.290;6.144;2024-03-08T13:42:17;5.57;;;4.78;;
47431;SDS011;33183;52.290;6.144;2024-03-08T13:44:44;5.38;;;4.30;;
47431;SDS011;33183;52.290;6.144;2024-03-08T13:47:10;5.50;;;4.82;;
47431;SDS011;33183;52.290;6.144;2024-03-08T13:49:38;5.47;;;4.53;;
47431;SDS011;33183;52.290;6.144;2024-03-08T13:52:03;6.30;;;4.82;;
47431;SDS011;33183;52.290;6.144;2024-03-08T13:54:29;6.25;;;4.68;;
47431;SDS011;33183;52.290;6.144;2024-03-08T13:56:56;4.90;;;4.28;;
47431;SDS011;33183;52.290;6.144;2024-03-08T13:59:21;5.60;;;4.75;;
47431;SDS011;33183;52.290;6.144;2024-03-08T14:01:50;5.05;;;4.53;;
47431;SDS011;33183;52.290;6.144;2024-03-08T14:04:15;5.38;;;4.20;;
47431;SDS011;33183;52.290;6.144;2024-03-08T14:06:42;5.57;;;4.97;;
47431;SDS011;33183;52.290;6.144;2024-03-08T14:09:09;5.47;;;4.78;;
47431;SDS011;33183;52.290;6.144;2024-03-08T14:11:39;5.30;;;4.60;;
47431;SDS011;33183;52.290;6.144;2024-03-08T14:14:05;4.80;;;4.20;;
47431;SDS011;33183;52.290;6.144;2024-03-08T14:16:30;5.53;;;4.45;;
47431;SDS011;33183;52.290;6.144;2024-03-08T14:18:56;5.45;;;4.38;;
47431;SDS011;33183;52.290;6.144;2024-03-08T14:21:21;6.47;;;4.57;;
47431;SDS011;33183;52.290;6.144;2024-03-08T14:23:47;5.38;;;4.88;;
47431;SDS011;33183;52.290;6.144;2024-03-08T14:26:14;5.95;;;4.55;;
47431;SDS011;33183;52.290;6.144;2024-03-08T14:28:39;4.53;;;4.13;;
47431;SDS011;33183;52.290;6.144;2024-03-08T14:31:04;5.03;;;4.32;;
47431;SDS011;33183;52.290;6.144;2024-03-08T14:33:35;5.68;;;4.63;;
47431;SDS011;33183;52.290;6.144;2024-03-08T14:36:02;4.93;;;4.40;;
47431;SDS011;33183;52.290;6.144;2024-03-08T14:38:28;5.55;;;4.95;;
47431;SDS011;33183;52.290;6.144;2024-03-08T14:40:53;4.88;;;4.38;;
47431;SDS011;33183;52.290;6.144;2024-03-08T14:43:18;4.68;;;4.28;;
47431;SDS011;33183;52.290;6.144;2024-03-08T14:45:45;4.90;;;4.40;;
47431;SDS011;33183;52.290;6.144;2024-03-08T14:48:12;5.20;;;4.70;;
47431;SDS011;33183;52.290;6.144;2024-03-08T14:50:38;5.18;;;4.57;;
47431;SDS011;33183;52.290;6.144;2024-03-08T14:53:05;5.55;;;4.75;;